Time;durP1;ratioP1;P1;durP2;ratioP2;P2;SDS_P1;SDS_P2;PMS_P1;PMS_P2;Temp;Humidity;BMP_temperature;BMP_pressure;BME280_temperature;BME280_humidity;BME280_pressure;Samples;Min_cycle;Max_cycle;Signal;HPM_P1;HPM_P2
2021/10/19 00:01:53;;;;;;;18.92;15.43;;;;;;;8.05;66.21;95768.28;5125880;28;20031;-77
2021/10/19 00:04:18;;;;;;;19.35;14.52;;;;;;;7.98;66.87;95771.28;5126555;28;20235;-77
2021/10/19 00:06:43;;;;;;;19.17;15.15;;;;;;;7.93;67.27;95768.94;5107342;28;20024;-77
2021/10/19 00:09:09;;;;;;;20.42;16.02;;;;;;;7.91;66.36;95752.72;5106995;28;20027;-78
2021/10/19 00:11:34;;;;;;;21.90;16.88;;;;;;;8.03;66.05;95785.63;5124268;27;20417;-78
2021/10/19 00:14:00;;;;;;;22.15;17.55;;;;;;;7.87;66.31;95755.56;5124291;28;20031;-77
2021/10/19 00:16:25;;;;;;;24.60;17.85;;;;;;;7.98;65.98;95782.47;5159659;27;20047;-77
2021/10/19 00:18:51;;;;;;;24.88;17.75;;;;;;;8.07;65.22;95788.88;5123225;28;20035;-77
2021/10/19 00:21:16;;;;;;;27.02;19.70;;;;;;;8.01;65.52;95782.28;5123845;27;20040;-77
2021/10/19 00:23:41;;;;;;;28.33;18.38;;;;;;;7.99;65.75;95783.28;5126975;28;20027;-77
2021/10/19 00:26:07;;;;;;;25.30;19.42;;;;;;;8.00;66.23;95798.75;5116481;28;20047;-77
2021/10/19 00:28:32;;;;;;;26.27;18.42;;;;;;;7.99;65.93;95804.81;5112953;28;20028;-77
2021/10/19 00:30:58;;;;;;;24.50;18.17;;;;;;;8.01;65.89;95797.00;5099413;28;20033;-77
2021/10/19 00:33:23;;;;;;;23.65;17.88;;;;;;;8.07;65.91;95791.44;5110239;28;20076;-78
2021/10/19 00:35:48;;;;;;;28.17;19.02;;;;;;;7.94;65.95;95786.16;5111776;28;20046;-77
2021/10/19 00:38:14;;;;;;;21.90;17.17;;;;;;;8.02;65.73;95791.75;5113147;28;20028;-77
2021/10/19 00:40:39;;;;;;;21.02;15.70;;;;;;;8.02;65.71;95789.16;5102944;28;20058;-77
2021/10/19 00:43:05;;;;;;;23.95;17.85;;;;;;;7.99;65.26;95778.94;5124944;27;20035;-77
2021/10/19 00:45:31;;;;;;;24.13;17.48;;;;;;;8.07;65.09;95797.47;5147183;27;20027;-77
2021/10/19 00:47:56;;;;;;;24.42;17.45;;;;;;;8.10;64.76;95791.28;5145511;27;20044;-77
2021/10/19 00:50:22;;;;;;;23.90;17.05;;;;;;;7.99;65.15;95778.13;5112587;28;20114;-77
2021/10/19 00:52:48;;;;;;;24.00;17.58;;;;;;;8.09;65.17;95793.97;5113059;28;20209;-77
2021/10/19 00:55:13;;;;;;;22.90;17.63;;;;;;;8.03;65.48;95784.81;5121288;27;20028;-78
2021/10/19 00:57:39;;;;;;;20.73;16.23;;;;;;;7.96;65.37;95794.66;5134140;27;20138;-77
2021/10/19 01:00:06;;;;;;;20.02;15.85;;;;;;;8.00;66.04;95790.97;5104039;28;20032;-77
2021/10/19 01:02:32;;;;;;;21.15;15.52;;;;;;;7.99;65.85;95786.72;5101729;28;20038;-77
2021/10/19 01:04:57;;;;;;;21.13;15.48;;;;;;;7.96;66.04;95786.88;5114236;27;20020;-77
2021/10/19 01:07:23;;;;;;;21.92;16.98;;;;;;;7.99;65.18;95794.47;5086677;28;20464;-77
2021/10/19 01:09:48;;;;;;;21.95;16.13;;;;;;;7.95;65.46;95784.41;5107308;27;20054;-77
2021/10/19 01:12:14;;;;;;;21.33;15.45;;;;;;;7.94;65.95;95793.06;5123982;27;20420;-77
2021/10/19 01:14:39;;;;;;;22.33;16.10;;;;;;;7.90;66.31;95789.00;5108984;28;20032;-77
2021/10/19 01:17:05;;;;;;;22.88;17.45;;;;;;;7.91;65.88;95791.50;5119030;27;20031;-77
2021/10/19 01:19:31;;;;;;;23.75;17.63;;;;;;;7.89;65.84;95785.59;5111699;28;20020;-77
2021/10/19 01:21:57;;;;;;;23.42;17.23;;;;;;;7.90;66.13;95792.41;5146449;27;20040;-78
2021/10/19 01:24:23;;;;;;;22.27;15.82;;;;;;;7.93;65.30;95784.47;5128926;27;20055;-77
2021/10/19 01:26:48;;;;;;;22.88;16.92;;;;;;;7.82;65.46;95786.84;5093845;28;20496;-77
2021/10/19 01:29:14;;;;;;;20.98;15.68;;;;;;;7.79;65.48;95779.25;5113698;28;20016;-78
2021/10/19 01:31:40;;;;;;;21.25;15.63;;;;;;;7.80;65.74;95783.50;5105706;28;20032;-77
2021/10/19 01:34:05;;;;;;;18.48;14.52;;;;;;;7.69;66.00;95775.50;5088872;28;20050;-77
2021/10/19 01:36:31;;;;;;;21.60;15.38;;;;;;;7.67;66.43;95782.53;5085916;28;20032;-77
2021/10/19 01:38:56;;;;;;;18.80;14.70;;;;;;;7.60;67.21;95793.25;5091074;28;20047;-77
2021/10/19 01:41:22;;;;;;;22.50;15.98;;;;;;;7.57;67.24;95795.13;5116601;27;20058;-77
2021/10/19 01:43:47;;;;;;;21.05;15.23;;;;;;;7.54;67.05;95788.38;5146348;27;20492;-77
2021/10/19 01:46:12;;;;;;;20.05;14.75;;;;;;;7.55;67.02;95789.22;5096823;28;20058;-77
2021/10/19 01:48:40;;;;;;;20.08;14.43;;;;;;;7.49;66.77;95795.56;5091779;28;20455;-77
2021/10/19 01:51:05;;;;;;;20.17;15.18;;;;;;;7.54;66.09;95796.13;5108098;27;20036;-77
2021/10/19 01:53:30;;;;;;;20.67;14.40;;;;;;;7.48;66.41;95804.25;5074401;28;20085;-77
2021/10/19 01:55:56;;;;;;;20.67;15.73;;;;;;;7.46;66.34;95800.91;5091421;28;20044;-77
2021/10/19 01:58:23;;;;;;;19.20;14.20;;;;;;;7.54;65.74;95797.91;5124741;27;20027;-77
2021/10/19 02:00:49;;;;;;;18.77;13.82;;;;;;;7.54;65.56;95797.91;5100501;28;20546;-78
2021/10/19 02:03:14;;;;;;;17.83;13.45;;;;;;;7.51;65.05;95798.91;5128610;27;20032;-77
2021/10/19 02:05:39;;;;;;;17.00;11.85;;;;;;;7.48;65.45;95804.25;5144218;27;20066;-77
2021/10/19 02:08:05;;;;;;;20.98;13.63;;;;;;;7.47;66.54;95807.75;5111436;28;20011;-77
2021/10/19 02:10:31;;;;;;;17.30;13.18;;;;;;;7.34;67.69;95796.41;5116559;27;20036;-77
2021/10/19 02:12:57;;;;;;;20.25;13.32;;;;;;;7.12;67.71;95771.72;5107913;28;20027;-77
2021/10/19 02:15:26;;;;;;;18.30;13.02;;;;;;;7.23;67.28;95798.75;5092126;28;20444;-77
2021/10/19 02:17:51;;;;;;;16.63;12.00;;;;;;;7.22;67.25;95808.25;5136594;27;20516;-77
2021/10/19 02:20:17;;;;;;;16.15;12.02;;;;;;;7.15;67.82;95806.91;5125173;27;20032;-77
2021/10/19 02:22:42;;;;;;;17.38;11.68;;;;;;;7.02;68.13;95806.72;5094825;28;20028;-77
2021/10/19 02:25:08;;;;;;;20.55;12.65;;;;;;;6.97;68.47;95803.56;5091039;28;20027;-77
2021/10/19 02:27:33;;;;;;;18.17;12.35;;;;;;;6.94;68.51;95806.31;5090955;28;20052;-77
2021/10/19 02:29:59;;;;;;;15.82;11.85;;;;;;;6.84;68.64;95803.34;5092071;28;20020;-77
2021/10/19 02:32:24;;;;;;;21.88;16.10;;;;;;;6.74;68.82;95809.91;5090605;28;20093;-77
2021/10/19 02:34:50;;;;;;;19.73;12.77;;;;;;;6.72;69.05;95811.75;5092201;28;20031;-78
2021/10/19 02:37:15;;;;;;;15.90;11.38;;;;;;;6.66;69.09;95804.34;5119964;27;20112;-77
2021/10/19 02:39:41;;;;;;;15.82;10.75;;;;;;;6.67;69.03;95811.97;5128263;27;20054;-78
2021/10/19 02:42:06;;;;;;;14.15;10.07;;;;;;;6.68;69.47;95815.38;5110795;28;20035;-77
2021/10/19 02:44:31;;;;;;;14.15;10.18;;;;;;;6.59;69.58;95808.13;5112268;28;20027;-77
2021/10/19 02:46:57;;;;;;;13.80;9.50;;;;;;;6.65;69.50;95821.53;5098008;28;20043;-77
2021/10/19 02:49:22;;;;;;;15.52;9.20;;;;;;;6.63;69.53;95825.97;5105662;28;20024;-77
2021/10/19 02:51:48;;;;;;;12.65;8.88;;;;;;;6.63;69.61;95814.78;5095683;28;20027;-77
2021/10/19 02:54:13;;;;;;;11.57;8.70;;;;;;;6.58;69.74;95829.72;5145084;27;20028;-78
2021/10/19 02:56:39;;;;;;;13.73;9.27;;;;;;;6.54;69.41;95816.09;5080371;28;20028;-78
2021/10/19 02:59:04;;;;;;;15.68;9.93;;;;;;;6.51;68.61;95824.00;5108604;28;20059;-76
2021/10/19 03:01:30;;;;;;;17.20;10.38;;;;;;;6.55;68.54;95832.44;5073409;28;20036;-77
2021/10/19 03:03:56;;;;;;;14.82;9.32;;;;;;;6.54;69.04;95835.91;5090900;28;20024;-77
2021/10/19 03:06:22;;;;;;;18.55;10.00;;;;;;;6.39;69.64;95815.13;5091493;28;20035;-77
2021/10/19 03:08:47;;;;;;;13.65;9.50;;;;;;;6.35;69.06;95820.53;5091597;28;20032;-78
2021/10/19 03:11:12;;;;;;;13.90;9.20;;;;;;;6.44;69.21;95835.56;5091520;28;20448;-77
2021/10/19 03:13:38;;;;;;;14.65;10.63;;;;;;;6.44;69.07;95838.16;5073395;28;20417;-77
2021/10/19 03:16:03;;;;;;;14.65;9.52;;;;;;;6.45;69.06;95842.38;5132891;27;20039;-77
2021/10/19 03:18:29;;;;;;;13.68;9.13;;;;;;;6.35;69.18;95828.25;5110973;28;20405;-78
2021/10/19 03:20:55;;;;;;;15.23;9.95;;;;;;;6.37;69.01;95836.78;5109390;28;20028;-77
2021/10/19 03:23:20;;;;;;;12.70;9.55;;;;;;;6.41;69.08;95835.72;5111868;28;20038;-77
2021/10/19 03:25:45;;;;;;;15.82;10.25;;;;;;;6.46;68.83;95844.91;5127750;28;20121;-78
2021/10/19 03:28:11;;;;;;;13.23;9.93;;;;;;;6.48;69.23;95842.22;5127353;28;20458;-78
2021/10/19 03:30:36;;;;;;;14.85;10.55;;;;;;;6.41;68.90;95843.47;5121996;28;20547;-78
2021/10/19 03:33:02;;;;;;;13.90;10.93;;;;;;;6.46;68.86;95839.75;5144898;27;20066;-78
2021/10/19 03:35:28;;;;;;;15.70;11.07;;;;;;;6.40;68.83;95836.63;5126973;28;20031;-78
2021/10/19 03:37:56;;;;;;;15.02;10.20;;;;;;;6.42;68.79;95843.38;5127344;28;20415;-77
2021/10/19 03:40:22;;;;;;;11.88;9.27;;;;;;;6.40;68.91;95829.69;5110248;28;20032;-77
2021/10/19 03:42:48;;;;;;;16.58;9.77;;;;;;;6.36;68.75;95835.94;5131159;27;20024;-76
2021/10/19 03:45:14;;;;;;;13.43;9.60;;;;;;;6.18;68.88;95806.72;5110474;28;20290;-77
2021/10/19 03:47:39;;;;;;;12.27;9.35;;;;;;;6.33;69.16;95841.25;5092563;28;20024;-77
2021/10/19 03:50:06;;;;;;;12.27;9.52;;;;;;;6.31;69.15;95842.25;5111222;28;20043;-77
2021/10/19 03:52:31;;;;;;;14.63;9.90;;;;;;;6.24;69.49;95829.66;5092356;28;20478;-78
2021/10/19 03:54:56;;;;;;;15.82;10.50;;;;;;;6.21;69.50;95840.13;5091027;28;20093;-78
2021/10/19 03:57:22;;;;;;;17.05;10.75;;;;;;;6.14;69.23;95843.91;5090529;28;20036;-77
2021/10/19 03:59:47;;;;;;;15.80;10.23;;;;;;;6.02;69.51;95827.28;5090220;28;20058;-78
2021/10/19 04:02:13;;;;;;;13.98;9.90;;;;;;;6.09;69.36;95845.03;5129175;27;20481;-77
2021/10/19 04:04:38;;;;;;;13.43;9.50;;;;;;;6.10;69.19;95844.13;5132324;27;20027;-77
2021/10/19 04:07:04;;;;;;;12.30;9.18;;;;;;;6.03;69.21;95831.53;5115414;28;20034;-77
2021/10/19 04:09:29;;;;;;;13.05;8.93;;;;;;;6.06;69.31;95855.50;5130692;27;20027;-76
2021/10/19 04:11:55;;;;;;;14.63;9.52;;;;;;;6.04;69.30;95853.00;5131100;27;20185;-78
2021/10/19 04:14:21;;;;;;;13.98;9.48;;;;;;;5.98;69.58;95859.28;5113977;28;20031;-78
2021/10/19 04:16:46;;;;;;;13.85;9.38;;;;;;;5.91;69.77;95844.16;5095904;28;20239;-78
2021/10/19 04:19:11;;;;;;;14.05;10.43;;;;;;;5.98;69.85;95863.63;5093393;28;20031;-78
2021/10/19 04:21:37;;;;;;;13.65;9.65;;;;;;;5.99;69.73;95867.84;5127599;27;20035;-78
2021/10/19 04:24:02;;;;;;;13.88;9.50;;;;;;;5.91;69.61;95852.75;5113741;28;20030;-78
2021/10/19 04:26:28;;;;;;;12.88;9.60;;;;;;;5.99;69.51;95865.28;5147147;27;20043;-78
2021/10/19 04:28:53;;;;;;;14.88;9.25;;;;;;;5.95;69.95;95868.94;5114650;28;20042;-78
2021/10/19 04:31:19;;;;;;;15.60;10.05;;;;;;;5.94;69.71;95867.25;5147413;27;20034;-77
2021/10/19 04:33:44;;;;;;;15.25;9.40;;;;;;;5.92;69.87;95863.88;5147672;27;20101;-78
2021/10/19 04:36:09;;;;;;;12.48;8.88;;;;;;;5.91;70.23;95872.53;5124449;27;20035;-78
2021/10/19 04:38:35;;;;;;;12.82;8.95;;;;;;;5.86;69.91;95875.31;5114801;28;20026;-78
2021/10/19 04:41:01;;;;;;;13.57;9.32;;;;;;;5.69;69.81;95847.75;5108329;28;20031;-77
2021/10/19 04:43:26;;;;;;;17.73;9.50;;;;;;;5.80;70.00;95866.13;5111372;28;20482;-78
2021/10/19 04:45:53;;;;;;;12.52;8.95;;;;;;;5.88;69.83;95873.53;5111096;28;20035;-78
2021/10/19 04:48:22;;;;;;;13.63;9.10;;;;;;;5.88;69.93;95877.81;5084932;28;20055;-78
2021/10/19 04:50:47;;;;;;;12.05;8.93;;;;;;;5.84;70.22;95877.13;5113799;28;20036;-78
2021/10/19 04:53:13;;;;;;;12.80;8.68;;;;;;;5.88;70.22;95877.81;5095446;28;20480;-77
2021/10/19 04:55:38;;;;;;;12.45;8.75;;;;;;;5.87;70.10;95881.31;5095700;28;20032;-78
2021/10/19 04:58:04;;;;;;;11.75;8.63;;;;;;;5.81;70.58;95885.84;5094010;28;20036;-78
2021/10/19 05:00:29;;;;;;;13.68;8.95;;;;;;;5.82;70.31;95890.13;5110579;28;20020;-78
2021/10/19 05:02:55;;;;;;;10.75;7.93;;;;;;;5.85;70.06;95899.47;5092441;28;20044;-78
2021/10/19 05:05:21;;;;;;;11.50;8.70;;;;;;;5.83;69.85;95899.50;5093433;28;20553;-77
2021/10/19 05:07:46;;;;;;;14.10;9.18;;;;;;;5.79;70.01;95897.13;5092579;28;20039;-78
2021/10/19 05:10:12;;;;;;;12.13;8.82;;;;;;;5.73;69.87;95894.84;5092303;28;20028;-77
2021/10/19 05:12:37;;;;;;;12.05;8.68;;;;;;;5.77;69.75;95902.38;5093514;28;20035;-78
2021/10/19 05:15:03;;;;;;;14.02;9.95;;;;;;;5.77;69.81;95910.13;5099910;28;20032;-77
2021/10/19 05:17:29;;;;;;;19.48;14.32;;;;;;;5.72;70.29;95924.13;5109949;28;20039;-78
2021/10/19 05:19:54;;;;;;;18.58;13.98;;;;;;;5.66;70.25;95930.41;5147226;27;20102;-78
2021/10/19 05:22:21;;;;;;;16.27;11.73;;;;;;;5.62;70.36;95933.19;5129182;27;20421;-78
2021/10/19 05:24:46;;;;;;;14.90;9.70;;;;;;;5.63;70.31;95920.25;5109445;27;20035;-78
2021/10/19 05:27:12;;;;;;;12.38;8.35;;;;;;;5.68;70.18;95928.56;5098767;27;20056;-77
2021/10/19 05:29:37;;;;;;;12.90;8.60;;;;;;;5.70;70.30;95925.94;5094151;28;20024;-78
2021/10/19 05:32:05;;;;;;;14.50;9.63;;;;;;;5.74;70.39;95938.63;5114862;27;20043;-77
2021/10/19 05:34:30;;;;;;;14.82;9.85;;;;;;;5.66;70.55;95935.56;5100750;27;20119;-77
2021/10/19 05:36:56;;;;;;;23.40;14.77;;;;;;;5.61;70.61;95940.09;5095061;28;20039;-77
2021/10/19 05:39:21;;;;;;;32.72;21.92;;;;;;;5.61;70.56;95947.81;5111922;28;20048;-77
2021/10/19 05:41:47;;;;;;;30.27;22.25;;;;;;;5.59;70.45;95950.44;5077925;28;20043;-77
2021/10/19 05:44:12;;;;;;;29.65;20.90;;;;;;;5.48;70.47;95950.09;5112040;28;20046;-77
2021/10/19 05:46:37;;;;;;;28.35;19.58;;;;;;;5.52;70.75;95959.38;5094958;28;20524;-77
2021/10/19 05:49:03;;;;;;;26.67;17.52;;;;;;;5.55;70.98;95968.72;5112024;28;20032;-78
2021/10/19 05:51:28;;;;;;;23.35;18.15;;;;;;;5.49;71.11;95959.53;5111182;28;20031;-77
2021/10/19 05:53:54;;;;;;;25.27;17.52;;;;;;;5.53;71.24;95976.50;5144109;27;20038;-77
2021/10/19 05:56:19;;;;;;;21.33;16.52;;;;;;;5.57;71.24;95977.19;5111589;28;20039;-76
2021/10/19 05:58:44;;;;;;;20.10;14.57;;;;;;;5.56;71.50;95984.09;5146448;27;20027;-75
2021/10/19 06:01:10;;;;;;;16.73;13.50;;;;;;;5.60;71.61;95993.41;5139167;27;20031;-72
2021/10/19 06:03:36;;;;;;;17.73;12.50;;;;;;;5.60;71.56;95977.94;5104930;28;20565;-75
2021/10/19 06:06:01;;;;;;;19.33;13.35;;;;;;;5.59;71.69;95986.53;5106686;28;20084;-74
2021/10/19 06:08:27;;;;;;;16.80;11.43;;;;;;;5.56;71.83;95981.53;5057970;28;20028;-74
2021/10/19 06:10:56;;;;;;;16.00;11.43;;;;;;;5.57;71.79;95974.63;5119458;27;20428;-76
2021/10/19 06:13:21;;;;;;;15.10;11.10;;;;;;;5.61;71.73;95986.50;5121098;27;20035;-77
2021/10/19 06:15:47;;;;;;;16.98;10.85;;;;;;;5.62;72.02;95984.75;5107310;28;20421;-76
2021/10/19 06:18:13;;;;;;;15.98;11.30;;;;;;;5.81;72.93;95986.41;5099863;28;20027;-77
2021/10/19 06:20:39;;;;;;;26.30;17.45;;;;;;;6.57;83.63;95990.66;5096349;28;20044;-77
2021/10/19 06:23:04;;;;;;;53.95;24.58;;;;;;;7.32;86.03;95999.84;5088104;28;20062;-77
2021/10/19 06:25:29;;;;;;;38.55;23.17;;;;;;;7.94;85.80;95982.81;5093433;28;20043;-76
2021/10/19 06:27:55;;;;;;;23.30;16.05;;;;;;;8.47;83.61;96009.31;5110905;28;20032;-76
2021/10/19 06:30:20;;;;;;;25.92;18.58;;;;;;;8.84;75.74;96000.28;5110085;28;20492;-77
2021/10/19 06:32:46;;;;;;;27.25;18.98;;;;;;;9.25;74.40;95999.66;5109445;28;20081;-77
2021/10/19 06:35:11;;;;;;;25.40;17.02;;;;;;;9.69;76.17;96011.72;5111115;28;20032;-77
2021/10/19 06:37:37;;;;;;;18.88;14.27;;;;;;;10.20;77.82;96008.63;5126160;27;20032;-77
2021/10/19 06:40:06;;;;;;;19.70;13.85;;;;;;;10.55;73.69;96009.00;5094026;28;20027;-77
2021/10/19 06:42:32;;;;;;;22.55;15.18;;;;;;;10.78;69.63;95998.91;5144531;27;20020;-77
2021/10/19 06:45:00;;;;;;;20.25;14.68;;;;;;;10.91;66.09;96011.00;5128882;27;20036;-77
2021/10/19 06:47:29;;;;;;;23.10;15.88;;;;;;;11.27;65.25;96000.91;5124361;27;20042;-77
2021/10/19 06:49:55;;;;;;;25.40;17.33;;;;;;;11.38;61.53;96006.22;5093199;28;20024;-77
2021/10/19 06:52:20;;;;;;;20.95;16.15;;;;;;;11.55;60.76;96007.66;5104340;28;20064;-77
2021/10/19 06:54:46;;;;;;;22.85;14.90;;;;;;;11.77;60.48;96004.44;5110969;28;20080;-77
2021/10/19 06:57:12;;;;;;;16.55;12.88;;;;;;;11.90;59.16;95996.66;5091548;28;20039;-77
2021/10/19 06:59:37;;;;;;;15.23;10.80;;;;;;;12.16;59.14;96005.25;5133071;27;20081;-80
2021/10/19 07:02:03;;;;;;;16.73;10.77;;;;;;;12.30;58.74;96005.94;5128073;27;20032;-84
2021/10/19 07:04:28;;;;;;;16.65;11.65;;;;;;;12.46;57.38;96013.50;5075725;28;20028;-82
2021/10/19 07:06:54;;;;;;;17.60;12.82;;;;;;;12.51;53.49;96016.63;5086091;28;20031;-83
2021/10/19 07:09:19;;;;;;;14.10;10.98;;;;;;;12.45;55.13;96017.06;5105570;28;20043;-80
2021/10/19 07:11:45;;;;;;;16.95;10.52;;;;;;;12.62;56.51;96009.78;5136896;27;20595;-76
2021/10/19 07:14:10;;;;;;;12.65;8.30;;;;;;;12.77;56.63;96011.28;5056092;28;20038;-78
2021/10/19 07:16:35;;;;;;;14.90;8.57;;;;;;;12.97;56.18;96015.88;5104678;28;20088;-72
2021/10/19 07:19:03;;;;;;;11.35;8.70;;;;;;;13.10;55.31;96009.78;5105525;28;20058;-76
2021/10/19 07:21:28;;;;;;;10.93;9.18;;;;;;;13.12;54.96;96005.25;5103029;28;20041;-75
2021/10/19 07:23:54;;;;;;;11.00;8.40;;;;;;;13.28;55.05;96011.03;5073800;28;20053;-75
2021/10/19 07:26:19;;;;;;;12.88;8.38;;;;;;;13.41;54.93;96009.16;5122554;28;20044;-78
2021/10/19 07:28:45;;;;;;;9.73;7.25;;;;;;;13.53;54.69;96014.41;5123282;28;20429;-81
2021/10/19 07:31:10;;;;;;;11.15;8.13;;;;;;;13.47;53.22;96009.66;5125851;28;20398;-74
2021/10/19 07:33:36;;;;;;;11.05;7.95;;;;;;;13.64;53.12;96017.03;5138407;27;20028;-81
2021/10/19 07:36:01;;;;;;;13.52;8.60;;;;;;;13.66;52.18;96003.88;5088921;28;20028;-81
2021/10/19 07:38:27;;;;;;;18.95;11.05;;;;;;;13.75;49.82;96013.63;5118888;27;20503;-77
2021/10/19 07:40:52;;;;;;;14.77;10.60;;;;;;;13.67;48.65;96005.53;5108709;28;20036;-79
2021/10/19 07:43:17;;;;;;;15.35;10.75;;;;;;;13.74;47.11;96012.78;5110420;28;20497;-75
2021/10/19 07:45:43;;;;;;;14.68;11.02;;;;;;;13.68;48.27;96015.03;5111413;28;20038;-76
2021/10/19 07:48:08;;;;;;;19.45;10.45;;;;;;;13.70;49.07;96006.13;5111612;28;20069;-77
2021/10/19 07:50:34;;;;;;;16.48;10.40;;;;;;;13.58;48.29;95980.97;5111331;27;20089;-80
2021/10/19 07:52:59;;;;;;;17.38;12.77;;;;;;;13.80;47.12;96001.03;5113089;28;20027;-78
2021/10/19 07:55:27;;;;;;;17.08;13.00;;;;;;;13.69;47.13;96004.47;5112082;28;20141;-77
2021/10/19 07:57:52;;;;;;;20.27;11.35;;;;;;;13.62;48.47;95998.03;5114331;28;20236;-76
2021/10/19 08:00:24;;;;;;;18.92;13.45;;;;;;;13.82;47.73;96009.59;5148331;27;20027;-77
2021/10/19 08:02:49;;;;;;;22.58;14.98;;;;;;;13.79;47.81;96008.06;5097171;28;20096;-76
2021/10/19 08:05:15;;;;;;;24.23;14.18;;;;;;;13.84;47.60;96000.66;5148512;27;20097;-77
2021/10/19 08:07:47;;;;;;;17.15;12.98;;;;;;;13.94;47.39;96005.19;5131104;27;20094;-77
2021/10/19 08:10:17;;;;;;;15.95;12.20;;;;;;;14.03;47.94;95996.66;5131058;27;20027;-77
2021/10/19 08:12:43;;;;;;;16.57;12.13;;;;;;;14.06;47.99;95993.78;5130560;27;20489;-77
2021/10/19 08:15:08;;;;;;;16.88;12.07;;;;;;;14.21;47.68;95983.94;5113763;28;20272;-77
2021/10/19 08:17:34;;;;;;;20.42;13.57;;;;;;;14.24;46.44;95991.53;5113830;28;20110;-77
2021/10/19 08:19:59;;;;;;;20.33;14.35;;;;;;;14.19;45.27;95994.50;5130964;27;20046;-77
2021/10/19 08:22:31;;;;;;;18.52;12.90;;;;;;;14.07;46.77;95992.84;5113558;28;20413;-77
2021/10/19 08:24:56;;;;;;;19.15;14.40;;;;;;;14.11;46.91;95986.44;5147387;27;20597;-78
2021/10/19 08:27:25;;;;;;;20.17;14.80;;;;;;;14.12;46.14;95995.91;5130874;27;20063;-78
2021/10/19 08:29:51;;;;;;;21.10;14.57;;;;;;;14.05;46.09;96002.59;5148092;27;20028;-78
2021/10/19 08:32:16;;;;;;;18.67;14.48;;;;;;;14.11;46.33;95998.66;5115055;27;20246;-78
2021/10/19 08:34:42;;;;;;;21.75;16.00;;;;;;;14.12;47.61;95995.91;5148093;27;20467;-77
2021/10/19 08:37:09;;;;;;;19.25;13.63;;;;;;;14.09;47.25;95985.72;5115143;28;20047;-77
2021/10/19 08:39:34;;;;;;;16.65;13.25;;;;;;;14.23;46.24;95988.06;5147492;27;20115;-77
2021/10/19 08:42:00;;;;;;;21.58;13.77;;;;;;;14.33;46.71;95992.59;5147684;27;20520;-77
2021/10/19 08:44:26;;;;;;;21.00;15.70;;;;;;;14.41;47.03;95988.41;5147737;27;20038;-80
2021/10/19 08:46:51;;;;;;;19.80;12.95;;;;;;;14.53;46.26;95994.47;5114936;28;20084;-77
2021/10/19 08:49:17;;;;;;;17.77;13.40;;;;;;;14.59;44.31;95991.34;5129954;27;20458;-76
2021/10/19 08:51:42;;;;;;;21.80;14.98;;;;;;;14.49;45.34;95996.47;5114402;28;20035;-77
2021/10/19 08:54:08;;;;;;;15.07;11.88;;;;;;;14.59;42.11;95988.75;5147608;27;20027;-77
2021/10/19 08:56:37;;;;;;;19.58;10.40;;;;;;;14.52;42.86;95996.25;5147593;27;20023;-78
2021/10/19 08:59:02;;;;;;;19.98;11.43;;;;;;;14.51;44.35;95981.50;5113266;28;20028;-77
2021/10/19 09:01:34;;;;;;;16.77;11.20;;;;;;;14.69;43.38;95987.06;5114213;28;20032;-77
2021/10/19 09:04:00;;;;;;;13.98;11.18;;;;;;;14.63;42.39;95990.16;5112890;28;20019;-77
2021/10/19 09:06:35;;;;;;;14.40;10.63;;;;;;;14.51;43.35;95975.41;5113044;28;20035;-77
2021/10/19 09:09:05;;;;;;;16.65;10.30;;;;;;;14.59;44.23;95980.06;5113042;28;20035;-77
2021/10/19 09:11:44;;;;;;;15.07;11.47;;;;;;;14.64;43.90;95978.75;5129934;27;20035;-77
2021/10/19 09:14:10;;;;;;;16.50;11.63;;;;;;;14.65;44.56;95966.50;5113871;28;20024;-76
2021/10/19 09:16:49;;;;;;;18.63;12.63;;;;;;;14.78;44.06;95972.41;5129533;27;20174;-77
2021/10/19 09:19:16;;;;;;;17.83;12.55;;;;;;;14.75;44.06;95960.41;5129852;27;20028;-77
2021/10/19 09:21:45;;;;;;;14.60;11.35;;;;;;;14.78;44.14;95954.09;5129659;27;20023;-77
2021/10/19 09:24:21;;;;;;;18.42;11.15;;;;;;;14.84;43.73;95963.22;5095849;28;20107;-76
2021/10/19 09:26:55;;;;;;;18.92;13.38;;;;;;;14.87;43.36;95960.34;5113729;28;20047;-77
2021/10/19 09:29:21;;;;;;;13.82;11.05;;;;;;;14.93;43.52;95965.06;5113385;28;20027;-77
2021/10/19 09:31:53;;;;;;;19.25;11.13;;;;;;;15.03;43.71;95959.94;5129463;27;20046;-77
2021/10/19 09:34:18;;;;;;;14.70;11.70;;;;;;;14.88;40.58;95957.63;5112386;28;20028;-77
2021/10/19 09:36:44;;;;;;;14.23;10.40;;;;;;;14.71;41.25;95953.78;5129517;27;20039;-79
2021/10/19 09:39:09;;;;;;;12.85;9.25;;;;;;;14.60;41.47;95942.50;5095020;28;20020;-76
2021/10/19 09:41:44;;;;;;;13.38;10.15;;;;;;;14.75;41.98;95951.72;5112347;28;20039;-77
2021/10/19 09:44:11;;;;;;;12.40;9.77;;;;;;;14.74;42.04;95945.66;5146631;27;20058;-76
2021/10/19 09:46:37;;;;;;;15.23;9.20;;;;;;;14.93;42.12;95942.38;5129211;27;20097;-77
2021/10/19 09:49:02;;;;;;;15.45;9.45;;;;;;;15.05;42.06;95945.78;5112051;28;20485;-76
2021/10/19 09:51:28;;;;;;;13.38;9.15;;;;;;;15.21;42.46;95942.72;5128950;27;20489;-77
2021/10/19 09:53:54;;;;;;;17.35;10.98;;;;;;;15.27;41.65;95951.84;5129247;27;20072;-76
2021/10/19 09:56:19;;;;;;;12.25;9.35;;;;;;;15.37;42.16;95947.47;5146181;27;20084;-77
2021/10/19 09:58:45;;;;;;;14.15;11.48;;;;;;;15.37;42.24;95931.75;5112066;28;20043;-76
2021/10/19 10:01:12;;;;;;;14.52;9.90;;;;;;;15.53;42.43;95942.59;5127750;27;20043;-76
2021/10/19 10:03:39;;;;;;;14.93;10.63;;;;;;;15.63;42.10;95940.88;5128692;27;20485;-77
2021/10/19 10:06:05;;;;;;;13.85;9.18;;;;;;;15.68;41.98;95921.31;5111506;28;20047;-76
2021/10/19 10:08:30;;;;;;;12.75;9.18;;;;;;;15.85;40.27;95923.31;5094664;28;20023;-77
2021/10/19 10:10:56;;;;;;;14.63;9.70;;;;;;;15.77;39.60;95924.00;5094322;28;20043;-76
2021/10/19 10:13:22;;;;;;;12.65;8.88;;;;;;;15.88;40.40;95925.72;5128756;27;20043;-76
2021/10/19 10:15:48;;;;;;;13.23;9.75;;;;;;;15.96;40.43;95922.41;5111582;28;20031;-76
2021/10/19 10:18:13;;;;;;;10.82;7.93;;;;;;;16.02;40.15;95925.34;5112789;28;20024;-76
2021/10/19 10:20:41;;;;;;;15.48;11.25;;;;;;;16.00;40.01;95916.78;5128286;27;20040;-76
2021/10/19 10:23:26;;;;;;;13.82;9.30;;;;;;;16.06;40.47;95920.66;5145584;27;20115;-76
2021/10/19 10:25:53;;;;;;;11.00;8.57;;;;;;;16.08;40.24;95919.56;5094199;28;20515;-76
2021/10/19 10:28:29;;;;;;;12.90;8.88;;;;;;;16.14;39.40;95915.56;5128400;27;20030;-76
2021/10/19 10:30:56;;;;;;;10.82;8.52;;;;;;;16.12;39.56;95906.19;5128138;27;20027;-77
2021/10/19 10:34:01;;;;;;;13.25;10.43;;;;;;;16.01;39.10;95901.88;5110956;28;20176;-76
2021/10/19 10:36:35;;;;;;;32.95;20.30;;;;;;;15.99;40.19;95904.66;5077410;27;20517;-76
2021/10/19 10:39:02;;;;;;;16.08;11.05;;;;;;;16.02;39.25;95901.75;5128055;27;20051;-77
2021/10/19 10:41:37;;;;;;;14.55;10.73;;;;;;;15.88;38.02;95898.66;5144918;27;20125;-77
2021/10/19 10:44:03;;;;;;;13.57;10.57;;;;;;;15.69;39.94;95894.19;5112419;28;20031;-77
2021/10/19 10:46:29;;;;;;;13.05;9.68;;;;;;;15.72;39.76;95892.13;5128125;27;20035;-76
2021/10/19 10:48:56;;;;;;;13.65;9.35;;;;;;;15.68;39.05;95889.88;5145419;27;20039;-77
2021/10/19 10:51:32;;;;;;;13.20;10.88;;;;;;;15.59;39.68;95881.84;5110744;28;20031;-76
2021/10/19 10:53:58;;;;;;;12.68;9.38;;;;;;;15.57;40.20;95875.09;5127769;27;20032;-77
2021/10/19 10:56:23;;;;;;;10.95;7.93;;;;;;;15.63;39.37;95877.19;5110746;28;20549;-76
2021/10/19 10:58:49;;;;;;;11.65;8.63;;;;;;;15.61;39.60;95879.09;5127903;27;20024;-77
2021/10/19 11:01:15;;;;;;;12.40;9.32;;;;;;;15.50;39.16;95880.03;5110264;28;20040;-76
2021/10/19 11:03:42;;;;;;;13.77;9.40;;;;;;;15.40;39.56;95869.50;5112259;28;20019;-76
2021/10/19 11:06:10;;;;;;;11.70;8.85;;;;;;;15.46;39.95;95877.78;5110794;28;20042;-76
2021/10/19 11:08:35;;;;;;;16.23;10.50;;;;;;;15.39;40.10;95864.41;5127402;27;20492;-76
2021/10/19 11:11:14;;;;;;;11.35;8.57;;;;;;;15.42;39.86;95872.81;5144817;27;20043;-75
2021/10/19 11:13:58;;;;;;;13.02;9.10;;;;;;;15.40;40.06;95874.72;5110315;28;20130;-76
2021/10/19 11:16:53;;;;;;;11.38;7.38;;;;;;;15.35;40.15;95869.09;5110465;28;20113;-77
2021/10/19 11:19:29;;;;;;;10.82;7.95;;;;;;;15.35;40.16;95863.00;5080515;28;20504;-77
2021/10/19 11:22:05;;;;;;;13.07;9.95;;;;;;;15.28;40.45;95859.25;5142002;27;20032;-76